Track Нечаев Валентин

Time Latitude Longitude Accuracy (66% radius in meters) Altitude (meters) Speed (km/hour) Bearing (degrees) Battery (%) GPS flag
10:31:51 57.035413 39.401849 2.5 166.30000305176 1.0900000333786 26.56494140625 1 1 delete
10:31:41 57.035322 39.401801 3.5 167 1.1599999666214 19.1162109375 1 1 delete
10:31:30 57.035202 39.401732 9.5 167.19999694824 0.66999995708466 26.581420898438 1 1 delete
10:31:25 57.034982 39.401843 10.5 194.19999694824 0.94999998807907 6.3720703125 1 1 delete
10:21:18 57.029172 39.400726 2 181.89999389648 0.93000000715256 5.7293701171875 3 1 delete
10:21:13 57.029122 39.400720 2.5 180.5 1.1100000143051 358.76403808594 3 1 delete
10:21:08 57.029061 39.400707 2.5 179 1.0099999904633 3.372802734375 3 1 delete
10:20:53 57.028902 39.400691 5.5 171.89999389648 1.1899999380112 15.639038085938 3 1 delete
10:20:47 57.028981 39.400559 8.5 164.5 1.1899999380112 10.552368164062 3 1 delete
10:10:41 57.022670 39.401023 2.5 172 1.3099999427795 341.66381835938 3 1 delete
10:10:36 57.022622 39.401035 2.5 171.60000610352 1.0799999237061 338.69201660156 3 1 delete
10:10:26 57.022509 39.401113 3.5 174.39999389648 1.1299999952316 345.44860839844 3 1 delete
10:10:15 57.022378 39.401265 10 171.39999389648 1.0499999523163 334.05578613281 3 1 delete
10:00:05 57.018088 39.406004 2.5 178.80000305176 0.87999999523163 357.33032226562 4 1 delete
09:59:55 57.017978 39.405983 3 179.10000610352 0.91999995708466 9.6240234375 4 1 delete
09:59:39 57.017873 39.406011 10 174.69999694824 1.2999999523163 342.56469726562 4 1 delete
09:49:31 57.013589 39.410843 3 190.69999694824 0.8299999833107 3.6968994140625 4 1 delete
09:49:26 57.013548 39.410822 3.5 188.80000305176 0.62999999523163 18.858032226562 4 1 delete
09:49:21 57.013468 39.410815 4 188.89999389648 0.93000000715256 12.052001953125 4 1 delete
09:49:11 57.013372 39.410809 6.5 190.80000305176 0 0 4 1 delete
09:49:05 57.013244 39.410806 11.5 185.60000610352 0.94999998807907 356.80847167969 4 1 delete
09:49:00 57.013511 39.410818 14.5 157.19999694824 1.2400000095367 26.685791015625 4 1 delete
09:38:58 57.008555 39.405205 2.5 180.89999389648 0.78999996185303 22.329711914062 5 1 delete
09:38:53 57.008507 39.405187 3 178.5 0.51999998092651 37.194213867188 5 1 delete
09:38:32 57.008475 39.405117 10.5 176 0.38999998569489 32.882080078125 5 1 delete
09:38:27 57.008178 39.405000 17 165.10000610352 1.5599999427795 20.143432617188 5 1 delete
09:28:19 57.002356 39.406075 3 197.30000305176 0.25 281.28845214844 5 1 delete
09:28:14 57.002308 39.406116 3 196.5 0.37999999523163 323.60229492188 5 1 delete
09:27:59 57.002201 39.406200 6.5 194.39999389648 0 0 5 1 delete
09:27:53 57.002268 39.406493 15 215.19999694824 1.1499999761581 331.35314941406 5 1 delete
09:17:45 56.996755 39.408904 2.5 201 0.91999995708466 341.79016113281 6 1 delete
09:17:35 56.996645 39.408997 3 199.60000610352 0.78999996185303 345.234375 6 1 delete
09:17:25 56.996549 39.409062 3.5 196.69999694824 0.5799999833107 331.42456054688 6 1 delete
09:17:15 56.996452 39.409189 8 191.5 0.91999995708466 326.59057617188 6 1 delete
09:17:09 56.996577 39.409125 20 220.69999694824 2.6199998855591 328.45825195312 6 1 delete
09:07:03 56.991449 39.409580 2 200.5 0.88999998569489 344.90478515625 6 1 delete
09:06:58 56.991428 39.409669 2.5 203.39999389648 1.0799999237061 317.197265625 6 1 delete
09:06:42 56.991356 39.409887 10 195.10000610352 0.83999997377396 323.11889648438 8 1 delete
09:06:37 56.991156 39.410868 29.5 205.10000610352 0.96999996900558 323.96484375 8 1 delete
08:56:29 56.989850 39.416860 2 177.19999694824 1.1599999666214 260.62316894531 8 1 delete
08:56:24 56.989860 39.416934 2.5 176.30000305176 1.2400000095367 267.978515625 8 1 delete
08:56:19 56.989866 39.417024 2.5 175.69999694824 1.0499999523163 263.4521484375 8 1 delete
08:56:04 56.989869 39.417274 5 170.39999389648 0.97999995946884 281.97509765625 8 1 delete
08:55:58 56.989863 39.417457 10 156.69999694824 1.4299999475479 278.41003417969 8 1 delete
08:45:54 56.990627 39.428444 2 182.30000305176 0.87999999523163 270.36804199219 13 1 delete
08:45:44 56.990631 39.428631 2.5 181.60000610352 0.85999995470047 274.72412109375 13 1 delete
08:45:29 56.990649 39.428884 4.5 184.39999389648 1.0599999427795 271.92260742188 13 1 delete
08:45:18 56.990600 39.429056 18 163.60000610352 0.68999999761581 192.60131835938 13 1 delete
08:35:15 56.994009 39.434337 1.5 177.89999389648 1.1499999761581 283.17810058594 13 1 delete
08:35:05 56.994005 39.434517 1.5 176.10000610352 1.1100000143051 288.89099121094 13 1 delete